createdAt,value
2018-07-30T00:00:16.895Z,23.74
2018-07-30T00:02:45.610Z,23.87
2018-07-30T00:05:13.849Z,23.86
2018-07-30T00:07:42.856Z,23.83
2018-07-30T00:10:11.120Z,23.67
2018-07-30T00:12:39.322Z,23.57
2018-07-30T00:15:07.584Z,23.58
2018-07-30T00:17:35.968Z,23.58
2018-07-30T00:20:04.928Z,23.58
2018-07-30T00:22:33.203Z,23.46
2018-07-30T00:25:01.461Z,23.36
2018-07-30T00:27:30.032Z,23.33
2018-07-30T00:29:58.516Z,23.29
2018-07-30T00:32:27.101Z,23.28
2018-07-30T00:34:55.969Z,23.39
2018-07-30T00:37:24.411Z,23.38
2018-07-30T00:39:52.679Z,23.25
2018-07-30T00:42:21.145Z,23.17
2018-07-30T00:44:49.970Z,23.17
2018-07-30T00:47:18.687Z,23.25
2018-07-30T00:49:47.031Z,23.22
2018-07-30T00:52:15.628Z,23.30
2018-07-30T00:54:44.151Z,23.34
2018-07-30T00:57:12.889Z,23.25
2018-07-30T00:59:41.136Z,23.23
2018-07-30T01:02:09.611Z,23.22
2018-07-30T01:04:38.190Z,23.13
2018-07-30T01:07:06.381Z,22.97
2018-07-30T01:09:35.211Z,22.94
2018-07-30T01:12:03.702Z,22.93
2018-07-30T01:14:32.145Z,22.82
2018-07-30T01:17:00.621Z,22.71
2018-07-30T01:19:28.861Z,22.68
2018-07-30T01:21:57.388Z,22.62
2018-07-30T01:24:25.653Z,22.56
2018-07-30T01:26:54.431Z,22.64
2018-07-30T01:29:22.862Z,22.62
2018-07-30T01:31:51.270Z,22.56
2018-07-30T01:34:19.498Z,22.49
2018-07-30T01:36:48.454Z,22.46
2018-07-30T01:39:16.819Z,22.52
2018-07-30T01:41:45.020Z,22.49
2018-07-30T01:44:14.124Z,22.37
2018-07-30T01:46:42.694Z,22.35
2018-07-30T01:49:10.883Z,22.32
2018-07-30T01:51:39.452Z,22.28
2018-07-30T01:54:07.741Z,22.28
2018-07-30T01:56:36.204Z,22.21
2018-07-30T01:59:04.432Z,22.13
2018-07-30T02:01:32.749Z,22.08
2018-07-30T02:04:01.369Z,22.07
2018-07-30T02:06:29.661Z,22.02
2018-07-30T02:08:58.476Z,21.98
2018-07-30T02:11:27.020Z,21.93
2018-07-30T02:13:55.774Z,21.88
2018-07-30T02:16:24.026Z,21.85
2018-07-30T02:18:52.423Z,21.90
2018-07-30T02:21:20.918Z,21.92
2018-07-30T02:23:49.126Z,21.90
2018-07-30T02:26:17.386Z,21.79
2018-07-30T02:28:45.913Z,21.74
2018-07-30T02:31:14.324Z,21.73
2018-07-30T02:33:42.549Z,21.66
2018-07-30T02:36:11.006Z,21.66
2018-07-30T02:38:39.896Z,21.63
2018-07-30T02:41:08.520Z,21.62
2018-07-30T02:43:37.670Z,21.58
2018-07-30T02:46:05.891Z,21.52
2018-07-30T02:48:34.406Z,21.47
2018-07-30T02:51:02.635Z,21.47
2018-07-30T02:53:31.985Z,21.48
2018-07-30T02:56:00.221Z,21.45
2018-07-30T02:58:28.461Z,21.42
2018-07-30T03:00:56.725Z,21.40
2018-07-30T03:03:25.729Z,21.48
2018-07-30T03:05:53.986Z,21.42
2018-07-30T03:08:22.637Z,21.36
2018-07-30T03:10:50.884Z,21.26
2018-07-30T03:13:19.256Z,21.28
2018-07-30T03:15:47.788Z,21.39
2018-07-30T03:18:17.684Z,21.35
2018-07-30T03:20:46.489Z,21.25
2018-07-30T03:23:14.663Z,21.19
2018-07-30T03:25:42.928Z,21.16
2018-07-30T03:28:11.146Z,21.20
2018-07-30T03:30:39.798Z,21.23
2018-07-30T03:33:08.010Z,21.13
2018-07-30T03:35:36.425Z,21.06
2018-07-30T03:38:04.931Z,21.08
2018-07-30T03:40:33.109Z,21.26
2018-07-30T03:43:01.357Z,21.27
2018-07-30T03:45:29.868Z,21.22
2018-07-30T03:47:58.193Z,21.26
2018-07-30T03:50:26.524Z,21.18
2018-07-30T03:52:54.765Z,21.10
2018-07-30T03:55:23.207Z,21.05
2018-07-30T03:57:51.584Z,21.25
2018-07-30T04:00:20.531Z,21.22
2018-07-30T04:11:03.786Z,21.08
2018-07-30T04:13:32.309Z,20.94
2018-07-30T04:16:00.770Z,20.99
2018-07-30T04:18:29.005Z,21.01
2018-07-30T04:20:57.572Z,21.02
2018-07-30T04:23:25.818Z,21.08
2018-07-30T04:25:54.768Z,21.12
2018-07-30T04:28:22.950Z,21.13
2018-07-30T04:30:51.435Z,21.25
2018-07-30T04:33:20.036Z,21.36
2018-07-30T04:35:48.264Z,21.35
2018-07-30T04:38:16.570Z,21.45
2018-07-30T04:40:44.772Z,21.49
2018-07-30T04:43:14.010Z,21.54
2018-07-30T04:45:42.265Z,21.51
2018-07-30T04:48:10.703Z,21.61
2018-07-30T04:50:38.937Z,21.66
2018-07-30T04:53:07.169Z,21.62
2018-07-30T04:55:35.353Z,21.71
2018-07-30T04:58:03.906Z,21.74
2018-07-30T05:00:32.407Z,21.85
2018-07-30T05:03:05.050Z,22.13
2018-07-30T05:05:33.959Z,22.20
2018-07-30T05:08:02.223Z,22.17
2018-07-30T05:10:30.422Z,22.26
2018-07-30T05:12:59.087Z,22.33
2018-07-30T05:15:27.632Z,22.49
2018-07-30T05:17:56.115Z,22.58
2018-07-30T05:20:24.320Z,22.68
2018-07-30T05:22:52.562Z,22.68
2018-07-30T05:25:21.789Z,22.99
2018-07-30T05:27:50.277Z,22.99
2018-07-30T05:30:18.521Z,23.10
2018-07-30T05:32:47.017Z,23.20
2018-07-30T05:35:15.388Z,22.97
2018-07-30T05:37:43.965Z,23.27
2018-07-30T05:40:12.865Z,23.40
2018-07-30T05:42:42.579Z,23.48
2018-07-30T05:45:10.796Z,23.65
2018-07-30T05:47:39.063Z,23.63
2018-07-30T05:50:08.521Z,23.48
2018-07-30T05:52:37.276Z,23.62
2018-07-30T05:55:05.855Z,23.63
2018-07-30T05:57:34.053Z,23.56
2018-07-30T06:00:02.813Z,23.72
2018-07-30T06:02:31.347Z,23.78
2018-07-30T06:04:59.613Z,23.87
2018-07-30T06:07:28.059Z,23.88
2018-07-30T06:09:56.268Z,23.99
2018-07-30T06:12:25.046Z,24.36
2018-07-30T06:14:53.628Z,24.43
2018-07-30T06:17:22.218Z,24.46
2018-07-30T06:19:51.838Z,24.38
2018-07-30T06:22:20.057Z,24.54
2018-07-30T06:24:48.280Z,24.54
2018-07-30T06:27:16.708Z,24.73
2018-07-30T06:29:44.964Z,24.82
2018-07-30T06:32:13.424Z,24.79
2018-07-30T06:34:41.667Z,25.17
2018-07-30T06:37:09.961Z,25.50
2018-07-30T06:39:38.404Z,25.06
2018-07-30T06:42:06.720Z,24.94
2018-07-30T06:44:35.515Z,25.24
2018-07-30T06:47:04.360Z,25.68
2018-07-30T06:49:32.585Z,25.60
2018-07-30T06:52:01.117Z,25.57
2018-07-30T06:54:30.460Z,25.66
2018-07-30T06:56:58.741Z,26.03
2018-07-30T06:59:27.049Z,26.12
2018-07-30T07:01:55.540Z,26.06
2018-07-30T07:04:24.062Z,26.18
2018-07-30T07:06:52.545Z,26.25
2018-07-30T07:09:21.425Z,26.37
2018-07-30T07:11:49.723Z,26.58
2018-07-30T07:14:17.999Z,26.72
2018-07-30T07:16:46.720Z,27.00
2018-07-30T07:19:15.695Z,27.04
2018-07-30T07:21:44.002Z,27.21
2018-07-30T07:24:12.261Z,27.30
2018-07-30T07:26:41.045Z,27.26
2018-07-30T07:29:09.596Z,27.04
2018-07-30T07:31:37.873Z,27.38
2018-07-30T07:34:06.389Z,27.43
2018-07-30T07:36:34.677Z,27.70
2018-07-30T07:39:04.288Z,27.78
2018-07-30T07:41:33.374Z,27.92
2018-07-30T07:44:01.828Z,28.19
2018-07-30T07:46:30.418Z,28.33
2018-07-30T07:48:59.129Z,28.34
2018-07-30T07:51:28.028Z,28.72
2018-07-30T07:53:56.978Z,29.01
2018-07-30T07:56:25.796Z,28.85
2018-07-30T07:58:54.139Z,28.72
2018-07-30T08:01:22.421Z,28.68
2018-07-30T08:03:51.157Z,28.96
2018-07-30T08:06:19.717Z,29.11
2018-07-30T08:08:48.858Z,29.07
2018-07-30T08:11:18.000Z,28.67
2018-07-30T08:13:47.094Z,28.91
2018-07-30T08:16:16.209Z,29.31
2018-07-30T08:18:45.046Z,29.62
2018-07-30T08:21:13.314Z,29.57
2018-07-30T08:23:48.992Z,29.80
2018-07-30T08:26:20.222Z,29.92
2018-07-30T08:28:50.221Z,29.93
2018-07-30T08:31:19.056Z,29.96
2018-07-30T08:33:48.102Z,30.03
2018-07-30T08:36:16.641Z,30.10
2018-07-30T08:38:45.204Z,30.00
2018-07-30T08:41:14.141Z,30.44
2018-07-30T08:43:42.461Z,31.06
2018-07-30T08:46:11.034Z,31.01
2018-07-30T08:48:39.251Z,31.10
2018-07-30T08:51:08.770Z,31.44
2018-07-30T08:53:37.244Z,31.64
2018-07-30T08:56:05.838Z,31.45
2018-07-30T08:58:34.155Z,31.56
2018-07-30T09:01:02.786Z,31.40
2018-07-30T09:03:31.915Z,31.33
2018-07-30T09:06:02.906Z,31.46
2018-07-30T09:08:31.532Z,31.41
2018-07-30T09:11:00.380Z,31.47
2018-07-30T09:13:29.071Z,31.83
2018-07-30T09:15:57.530Z,32.00
2018-07-30T09:18:26.358Z,32.43
2018-07-30T09:20:55.993Z,32.46
2018-07-30T09:23:24.435Z,32.52
2018-07-30T09:25:52.968Z,32.72
2018-07-30T09:28:22.190Z,32.14
2018-07-30T09:30:50.385Z,32.05
2018-07-30T09:33:19.625Z,32.34
2018-07-30T09:35:48.237Z,32.73
2018-07-30T09:38:16.937Z,33.07
2018-07-30T09:40:46.327Z,32.80
2018-07-30T09:43:16.004Z,33.06
2018-07-30T09:45:44.998Z,32.87
2018-07-30T09:48:14.025Z,32.89
2018-07-30T09:50:43.846Z,32.97
2018-07-30T09:53:13.491Z,32.95
2018-07-30T09:55:42.523Z,33.30
2018-07-30T09:58:11.137Z,33.57
2018-07-30T10:00:45.697Z,33.69
2018-07-30T10:03:14.856Z,33.84
2018-07-30T10:05:43.428Z,33.99
2018-07-30T10:08:12.585Z,34.06
2018-07-30T10:10:41.238Z,34.12
2018-07-30T10:13:09.651Z,34.50
2018-07-30T10:15:38.168Z,34.74
2018-07-30T10:18:07.173Z,34.85
2018-07-30T10:20:36.088Z,35.47
2018-07-30T10:23:04.450Z,35.47
2018-07-30T10:25:33.569Z,35.02
2018-07-30T10:28:03.233Z,35.56
2018-07-30T10:30:31.729Z,35.41
2018-07-30T10:33:01.331Z,35.61
2018-07-30T10:35:30.713Z,35.20
2018-07-30T10:37:59.281Z,34.49
2018-07-30T10:40:27.966Z,34.46
2018-07-30T10:42:57.716Z,34.46
2018-07-30T10:45:26.353Z,34.90
2018-07-30T10:47:55.344Z,34.79
2018-07-30T10:50:24.292Z,35.07
2018-07-30T10:52:53.030Z,35.11
2018-07-30T10:55:21.460Z,35.00
2018-07-30T10:57:49.913Z,35.64
2018-07-30T11:00:19.614Z,35.54
2018-07-30T11:02:48.716Z,35.18
2018-07-30T11:05:16.924Z,35.34
2018-07-30T11:07:45.398Z,35.00
2018-07-30T11:10:13.936Z,35.00
2018-07-30T11:12:42.966Z,34.91
2018-07-30T11:15:11.717Z,35.07
2018-07-30T11:17:40.360Z,34.59
2018-07-30T11:20:10.020Z,34.95
2018-07-30T11:22:39.708Z,34.56
2018-07-30T11:25:08.229Z,34.95
2018-07-30T11:27:37.377Z,35.75
2018-07-30T11:30:05.980Z,36.21
2018-07-30T11:32:34.809Z,35.75
2018-07-30T11:35:03.241Z,35.29
2018-07-30T11:37:31.681Z,35.97
2018-07-30T11:39:59.931Z,36.06
2018-07-30T11:42:28.519Z,35.33
2018-07-30T11:44:57.733Z,36.05
2018-07-30T11:47:26.264Z,36.41
2018-07-30T11:49:54.853Z,36.77
2018-07-30T11:52:23.522Z,36.64
2018-07-30T11:54:51.856Z,36.22
2018-07-30T11:57:21.476Z,35.88
2018-07-30T11:59:50.444Z,36.01
2018-07-30T12:02:18.797Z,36.60
2018-07-30T12:04:47.791Z,37.04
2018-07-30T12:07:16.591Z,36.37
2018-07-30T12:09:45.430Z,36.34
2018-07-30T12:12:14.428Z,36.44
2018-07-30T12:14:43.620Z,36.68
2018-07-30T12:17:12.552Z,37.40
2018-07-30T12:19:41.265Z,37.03
2018-07-30T12:22:09.506Z,37.43
2018-07-30T12:24:37.985Z,37.53
2018-07-30T12:27:06.802Z,37.19
2018-07-30T12:29:35.425Z,37.74
2018-07-30T12:32:04.866Z,37.60
2018-07-30T12:34:33.455Z,37.65
2018-07-30T12:37:01.742Z,38.18
2018-07-30T12:39:30.537Z,38.38
2018-07-30T12:41:59.537Z,37.65
2018-07-30T12:44:27.907Z,38.24
2018-07-30T12:46:56.672Z,38.23
2018-07-30T12:49:25.217Z,38.29
2018-07-30T12:51:53.511Z,37.37
2018-07-30T12:54:22.417Z,38.13
2018-07-30T12:56:50.915Z,38.46
2018-07-30T12:59:19.601Z,38.44
2018-07-30T13:01:48.182Z,39.14
2018-07-30T13:04:16.942Z,38.87
2018-07-30T13:06:45.549Z,38.57
2018-07-30T13:09:14.141Z,38.81
2018-07-30T13:11:42.541Z,39.11
2018-07-30T13:14:11.232Z,39.40
2018-07-30T13:16:39.421Z,39.75
2018-07-30T13:19:07.952Z,40.03
2018-07-30T13:21:36.455Z,40.77
2018-07-30T13:24:05.613Z,41.30
2018-07-30T13:26:34.658Z,41.95
2018-07-30T13:29:03.961Z,41.88
2018-07-30T13:31:32.368Z,41.62
2018-07-30T13:34:00.988Z,41.71
2018-07-30T13:36:29.539Z,42.71
2018-07-30T13:38:57.973Z,44.68
2018-07-30T13:41:26.460Z,44.87
2018-07-30T13:43:54.751Z,45.79
2018-07-30T13:46:23.133Z,43.53
2018-07-30T13:48:51.432Z,42.89
2018-07-30T13:51:20.969Z,42.04
2018-07-30T13:53:49.197Z,42.73
2018-07-30T13:56:18.318Z,44.99
2018-07-30T13:58:48.776Z,43.41
2018-07-30T14:01:19.645Z,42.09
2018-07-30T14:03:48.204Z,41.54
2018-07-30T14:06:19.496Z,41.22
2018-07-30T14:08:51.830Z,42.96
2018-07-30T14:11:20.669Z,44.42
2018-07-30T14:13:49.964Z,42.74
2018-07-30T14:16:18.234Z,44.15
2018-07-30T14:18:47.067Z,46.53
2018-07-30T14:21:15.702Z,48.21
2018-07-30T14:23:44.866Z,49.09
2018-07-30T14:26:13.466Z,47.90
2018-07-30T14:28:43.771Z,44.67
2018-07-30T14:31:12.363Z,45.73
2018-07-30T14:33:40.628Z,47.40
2018-07-30T14:36:09.117Z,48.78
2018-07-30T14:38:37.432Z,48.27
2018-07-30T14:41:06.627Z,50.16
2018-07-30T14:43:35.172Z,51.48
2018-07-30T14:46:04.404Z,46.30
2018-07-30T14:48:33.622Z,44.33
2018-07-30T14:51:03.276Z,46.01
2018-07-30T14:53:32.487Z,49.58
2018-07-30T14:56:01.622Z,50.75
2018-07-30T14:58:30.052Z,49.59
2018-07-30T15:00:58.257Z,47.61
2018-07-30T15:03:27.001Z,46.40
2018-07-30T15:05:56.040Z,47.29
2018-07-30T15:08:26.224Z,49.35
2018-07-30T15:10:54.807Z,50.13
2018-07-30T15:13:23.600Z,49.85
2018-07-30T15:15:51.827Z,52.43
2018-07-30T15:18:20.214Z,52.57
2018-07-30T15:20:48.529Z,51.45
2018-07-30T15:23:16.976Z,49.83
2018-07-30T15:25:45.340Z,51.05
2018-07-30T15:28:16.145Z,50.29
2018-07-30T15:30:44.916Z,51.58
2018-07-30T15:33:14.792Z,46.88
2018-07-30T15:35:43.461Z,47.47
2018-07-30T15:38:11.791Z,46.34
2018-07-30T15:40:40.165Z,44.28
2018-07-30T15:43:08.334Z,45.43
2018-07-30T15:45:36.723Z,44.36
2018-07-30T15:48:05.381Z,42.99
2018-07-30T15:50:34.394Z,42.15
2018-07-30T15:53:03.378Z,41.45
2018-07-30T15:55:31.881Z,42.26
2018-07-30T15:58:00.530Z,41.76
2018-07-30T16:00:28.783Z,40.77
2018-07-30T16:02:58.815Z,40.35
2018-07-30T16:05:27.089Z,40.72
2018-07-30T16:07:55.593Z,40.81
2018-07-30T16:10:24.118Z,40.92
2018-07-30T16:12:52.682Z,43.17
2018-07-30T16:15:21.864Z,44.27
2018-07-30T16:17:50.735Z,43.69
2018-07-30T16:20:19.061Z,41.91
2018-07-30T16:22:47.756Z,43.96
2018-07-30T16:25:16.125Z,46.20
2018-07-30T16:27:44.510Z,48.12
2018-07-30T16:30:13.566Z,47.79
2018-07-30T16:32:42.537Z,48.39
2018-07-30T16:35:10.881Z,47.84
2018-07-30T16:37:39.484Z,49.10
2018-07-30T16:40:08.259Z,49.42
2018-07-30T16:42:36.770Z,49.78
2018-07-30T16:45:06.867Z,49.77
2018-07-30T16:47:36.827Z,48.29
2018-07-30T16:50:07.922Z,47.95
2018-07-30T16:52:36.592Z,47.16
2018-07-30T16:55:05.610Z,47.14
2018-07-30T16:57:34.271Z,47.47
2018-07-30T17:00:03.192Z,47.51
2018-07-30T17:02:31.497Z,47.13
2018-07-30T17:05:00.732Z,47.40
2018-07-30T17:07:28.945Z,47.82
2018-07-30T17:09:57.814Z,46.60
2018-07-30T17:12:27.667Z,46.12
2018-07-30T17:14:56.188Z,46.16
2018-07-30T17:17:25.345Z,44.82
2018-07-30T17:19:53.678Z,44.91
2018-07-30T17:22:22.483Z,44.43
2018-07-30T17:24:50.804Z,43.56
2018-07-30T17:27:19.705Z,42.16
2018-07-30T17:29:49.646Z,41.50
2018-07-30T17:32:24.581Z,43.64
2018-07-30T17:34:54.128Z,42.78
2018-07-30T17:37:22.601Z,42.31
2018-07-30T17:39:51.384Z,41.06
2018-07-30T17:42:20.677Z,40.38
2018-07-30T17:44:50.170Z,39.29
2018-07-30T17:47:18.358Z,39.36
2018-07-30T17:49:46.672Z,39.28
2018-07-30T17:52:14.924Z,38.25
2018-07-30T17:54:43.948Z,37.77
2018-07-30T17:57:12.329Z,37.08
2018-07-30T17:59:42.085Z,36.72
2018-07-30T18:02:10.262Z,35.86
2018-07-30T18:04:42.571Z,35.57
2018-07-30T18:07:11.303Z,35.18
2018-07-30T18:09:39.373Z,34.98
2018-07-30T18:12:09.357Z,34.68
2018-07-30T18:14:39.042Z,34.26
2018-07-30T18:17:07.897Z,33.97
2018-07-30T18:19:37.447Z,33.63
2018-07-30T18:22:06.333Z,33.46
2018-07-30T18:24:34.982Z,33.48
2018-07-30T18:27:03.724Z,33.26
2018-07-30T18:29:31.888Z,33.27
2018-07-30T18:32:00.185Z,33.12
2018-07-30T18:34:28.938Z,32.93
2018-07-30T18:36:57.629Z,32.88
2018-07-30T18:39:26.186Z,32.71
2018-07-30T18:41:55.558Z,32.74
2018-07-30T18:44:24.234Z,32.63
2018-07-30T18:46:52.493Z,32.56
2018-07-30T18:49:22.082Z,32.51
2018-07-30T18:51:50.940Z,32.34
2018-07-30T18:54:19.275Z,32.26
2018-07-30T18:56:48.383Z,31.99
2018-07-30T18:59:17.105Z,31.95
2018-07-30T19:01:46.543Z,31.81
2018-07-30T19:04:15.114Z,31.64
2018-07-30T19:06:43.505Z,31.55
2018-07-30T19:09:11.829Z,31.52
2018-07-30T19:11:41.425Z,31.30
2018-07-30T19:14:10.606Z,31.24
2018-07-30T19:16:39.084Z,31.16
2018-07-30T19:19:07.766Z,31.11
2018-07-30T19:21:36.351Z,31.03
2018-07-30T19:24:05.524Z,30.81
2018-07-30T19:26:34.265Z,30.67
2018-07-30T19:29:03.021Z,30.69
2018-07-30T19:31:31.786Z,30.70
2018-07-30T19:34:00.852Z,30.64
2018-07-30T19:36:29.544Z,30.39
2018-07-30T19:38:58.015Z,30.31
2018-07-30T19:41:27.248Z,30.11
2018-07-30T19:43:55.680Z,30.13
2018-07-30T19:46:24.701Z,30.02
2018-07-30T19:48:53.637Z,29.88
2018-07-30T19:51:22.030Z,29.95
2018-07-30T19:53:51.837Z,29.80
2018-07-30T19:56:20.699Z,29.81
2018-07-30T19:58:49.739Z,29.70
2018-07-30T20:01:18.613Z,29.50
2018-07-30T20:03:47.443Z,29.46
2018-07-30T20:06:18.125Z,29.46
2018-07-30T20:08:47.784Z,29.20
2018-07-30T20:11:16.531Z,28.99
2018-07-30T20:13:44.881Z,28.99
2018-07-30T20:16:13.661Z,29.12
2018-07-30T20:18:42.584Z,29.40
2018-07-30T20:21:11.434Z,29.51
2018-07-30T20:23:40.572Z,29.49
2018-07-30T20:26:08.836Z,29.48
2018-07-30T20:28:37.866Z,29.35
2018-07-30T20:31:07.225Z,29.45
2018-07-30T20:33:35.738Z,29.51
2018-07-30T20:36:04.418Z,29.33
2018-07-30T20:38:33.177Z,29.12
2018-07-30T20:41:01.845Z,29.02
2018-07-30T20:43:30.933Z,28.92
2018-07-30T20:46:00.144Z,28.92
2018-07-30T20:48:28.810Z,28.80
2018-07-30T20:50:57.275Z,28.76
2018-07-30T20:53:26.065Z,28.55
2018-07-30T20:55:54.367Z,28.41
2018-07-30T20:58:23.108Z,28.52
2018-07-30T21:00:51.338Z,28.45
2018-07-30T21:03:19.856Z,28.24
2018-07-30T21:05:48.957Z,27.99
2018-07-30T21:08:21.378Z,27.84
2018-07-30T21:10:51.213Z,27.79
2018-07-30T21:13:20.156Z,27.78
2018-07-30T21:15:49.698Z,27.70
2018-07-30T21:18:18.099Z,27.65
2018-07-30T21:20:47.431Z,27.70
2018-07-30T21:23:17.086Z,27.59
2018-07-30T21:25:45.389Z,27.72
2018-07-30T21:28:15.222Z,27.59
2018-07-30T21:30:44.415Z,27.55
2018-07-30T21:33:13.181Z,27.37
2018-07-30T21:35:44.512Z,27.43
2018-07-30T21:38:12.851Z,27.32
2018-07-30T21:40:42.024Z,27.17
2018-07-30T21:43:11.828Z,27.05
2018-07-30T21:45:41.582Z,26.98
2018-07-30T21:48:11.648Z,26.92
2018-07-30T21:50:40.924Z,26.84
2018-07-30T21:53:09.476Z,26.82
2018-07-30T21:55:39.669Z,26.85
2018-07-30T21:58:08.956Z,26.85
2018-07-30T22:00:38.194Z,26.84
2018-07-30T22:03:07.050Z,26.81
2018-07-30T22:05:36.369Z,26.68
2018-07-30T22:08:06.066Z,26.51
2018-07-30T22:10:35.350Z,26.41
2018-07-30T22:13:03.585Z,26.53
2018-07-30T22:15:32.071Z,26.49
2018-07-30T22:18:00.546Z,26.53
2018-07-30T22:20:29.043Z,26.61
2018-07-30T22:22:57.483Z,26.39
2018-07-30T22:25:26.121Z,26.22
2018-07-30T22:27:54.961Z,26.15
2018-07-30T22:30:25.213Z,26.10
2018-07-30T22:32:53.517Z,26.06
2018-07-30T22:35:22.479Z,26.12
2018-07-30T22:37:50.587Z,26.09
2018-07-30T22:40:20.039Z,26.03
2018-07-30T22:42:48.283Z,26.15
2018-07-30T22:45:16.788Z,26.10
2018-07-30T22:47:45.420Z,26.02
2018-07-30T22:50:15.020Z,25.89
2018-07-30T22:52:44.056Z,25.98
2018-07-30T22:55:12.711Z,25.99
2018-07-30T22:57:40.923Z,25.90
2018-07-30T23:00:09.624Z,25.79
2018-07-30T23:02:38.122Z,25.91
2018-07-30T23:05:06.660Z,25.94
2018-07-30T23:07:34.879Z,25.78
2018-07-30T23:10:05.060Z,25.75
2018-07-30T23:12:33.314Z,25.68
2018-07-30T23:15:02.111Z,25.57
2018-07-30T23:17:30.715Z,25.60
2018-07-30T23:19:58.940Z,25.48
2018-07-30T23:22:27.197Z,25.38
2018-07-30T23:24:55.858Z,25.33
2018-07-30T23:27:24.026Z,25.28
2018-07-30T23:29:52.251Z,25.18
2018-07-30T23:32:20.733Z,25.08
2018-07-30T23:34:48.959Z,25.04
2018-07-30T23:37:17.231Z,25.07
2018-07-30T23:39:45.406Z,25.06
2018-07-30T23:42:13.660Z,25.15
2018-07-30T23:44:42.162Z,25.08
2018-07-30T23:47:10.524Z,25.08
2018-07-30T23:49:39.004Z,25.11
2018-07-30T23:52:07.505Z,25.08
2018-07-30T23:54:36.047Z,25.02
2018-07-30T23:57:04.637Z,24.92
2018-07-30T23:59:32.956Z,24.81
